Centertown, Kentucky
Current Conditions -  °F | °C
As of 10:35 AM on Thursday 23 Oct 2014 (Local Time) from K2I0 Reporting Station
Clear Clear  
Wind Chill: 55°   Ceiling: Unl
Heat Index: 55°   Visibility: 10mi
Dew Point: 47°   Wind: 5mph
Humidity: 76%   Direction: 130°SE
Pressure: 30.26"   Gusts: NA
Location:  37.42°N, 87°W
Report Text: K2I0 231535Z AUTO 13004KT 10SM CLR 13/08 A3026 RMK AO2 T01250084
Loading
Personal Weather Stations






























Interactive Weather Map
Tropical Storm Tracking
New forecast layout! Learn more

10-Day Weather Forecast

Advertisements
Track Severe Weather on mobile